NWS Home NWS Lubbock West Texas Mesonet Day over Day changes as of 0136 PM, Sun Nov 17, 2019

Latest   N   C   S   Daily Sum   3hrΔ   24hrΔ   Soil Data 
Site Map   24hr Precip   72hr Precip   Google Plot


Station Time of Last Temp Today Temp Yesterday Delta-T Dewpoint Today Dewpoint Yesterday Delta-Td Delta-Pressure (mB)
Reese Center  01:30 PM 60.2 60.7 -0.6 35 34.9 0.1 4
Abernathy  01:30 PM 58.4 59.9 -1.5 35 34.5 0.5 4.1
Plainview  01:30 PM 57.9 60.9 -3.1 36.2 34 2.3 4.5
Tahoka  01:30 PM 61.1 59.2 1.9 35.2 37.4 -2.2 3.5
Slaton  01:30 PM 60.3 60.4 -0.1 36.2 37.5 -1.3 3.4
Levelland  01:30 PM 58.4 62.1 -3.7 34.3 33.9 0.3 4.2
Roaring Springs  01:30 PM 60.4 63.4 -3 38.3 38.7 -0.5 3.1
Floydada  01:30 PM 59.5 61.1 -1.6 34.2 34.3 -0.1 3.6
Ralls  01:30 PM 59.6 61.9 -2.3 34.2 34.5 -0.3 3.6
Brownfield  01:30 PM 59.9 60.9 -0.9 35.3 35.6 -0.2 3.7
Muleshoe  01:30 PM 56.3 70.1 -13.8 36.1 29.1 6.9 6
Morton  01:30 PM 58.7 67.7 -9.1 33 27.2 5.8 5.1
O'Donnell  01:30 PM 62.1 62 0.1 37 37.8 -0.8 3.2
Seagraves  01:30 PM 60.4 62.2 -1.9 34.8 35.2 -0.5 3.6
Amherst  01:30 PM 56.7 65.1 -8.5 35.5 31.3 4.1 5.3
Plains  01:30 PM 58.3 62.4 -4.1 34.4 34.4 -0 4.1
Lamesa  01:30 PM 59.9 62.2 -2.2 36.5 37.6 -1.1 3.1
Hart  01:30 PM 55.4 64.3 -8.9 36.9 32.1 4.8 5.2
Friona  01:30 PM 55 69.4 -14.3 34.9 29.8 5.2 6.1
Dimmitt  01:30 PM 54.4 64.9 -10.4 35.5 33.1 2.4 5.6
Tulia  01:30 PM 56.2 64.8 -8.6 35 33.1 1.8 5.1
Silverton  01:30 PM 57.9 64.1 -6.2 33.5 32.1 1.4 4.2
Post  01:30 PM 63.3 60.8 2.5 33.8 36.3 -2.5 2.9
Seminole  01:30 PM 60.3 63.3 -3 32.1 31.4 0.7 3.8
Gail  01:30 PM 62.3 61.9 0.4 34.2 36.7 -2.6 2.5
White River Lake  01:30 PM 62 62.6 -0.6 36 37.2 -1.2 3
Graham  01:30 PM 59.8 61.3 -1.5 35.2 38.2 -3 3.1
Sundown  01:30 PM 60.5 62.9 -2.4 32.7 32.3 0.4 4.2
Anton  01:30 PM 58.3 62.7 -4.4 34.5 33.9 0.6 4.5
Fluvanna  01:30 PM 60.9 62.4 -1.5 35.7 38.8 -3.1 2.5
Spur  01:30 PM 62.1 63.9 -1.8 35.8 38.1 -2.4 2.8
Northwest Lubbock  01:30 PM 59.7 63.3 -3.6 33.5 33.8 -0.3 3.9
Guthrie  01:30 PM 63.2 66.2 -3 35.2 35.9 -0.7 2.3
Clarendon  01:30 PM 58.2 65.8 -7.6 33.5 34.3 -0.8 4.5
Paducah  01:30 PM 63.2 65.6 -2.4 36 36.8 -0.8 2.5
Snyder  01:30 PM 62.3 62.8 -0.5 36.9 40.1 -3.3 2
Memphis  01:30 PM 61.6 67.7 -6.2 33.5 33.9 -0.5 4.2
Jayton  01:30 PM 62.7 62.7 -0 37.1 39 -1.8 2.1
Pampa  01:30 PM 54.7 65.7 -11 32.3 33.8 -1.5 5.6
Aspermont  01:30 PM 64.8 65.7 -0.9 38.4 40.4 -2 1.4
Hereford  01:30 PM 54.1 67 -12.9 34.8 33.4 1.3 6
Goodlett  01:30 PM 64.1 65.3 -1.2 36.3 36.3 0 2.3
McLean  01:30 PM 57.3 62.4 -5.1 33.7 33.9 -0.2 4.2
Denver City  01:30 PM 59 59.7 -0.6 30.6 30.9 -0.2 4
Lake Alan Henry  01:30 PM 63 65.1 -2.1 36.9 40.3 -3.4 2.8
Wolfforth  01:30 PM 60 61.9 -1.9 35.2 35.1 0.1 3.8
Andrews  01:30 PM 62 65.3 -3.3 31.4 31.5 -0 3.2
Turkey  01:30 PM 60 66.1 -6 35.4 35.4 0 4.3
Childress  01:30 PM 62.9 65.7 -2.8 34.6 35.9 -1.2 3
Tatum  01:30 PM 58.5 66.7 -8.3 32.1 29.8 2.3 4.6
Northfield  01:30 PM 63.6 67.4 -3.9 33.6 32.9 0.7 3.7
Dora  01:30 PM 56.8 66.1 -9.3 33.4 25.6 7.8 5.3
Northwest San Angelo  01:30 PM 64.3 66.6 -2.3 35.5 33 2.5 -0.4
Saint Lawrence  01:30 PM 61.9 64.7 -2.9 35.2 38.5 -3.3 1.4
Haskell  01:30 PM 63.2 64.3 -1 37.9 35.4 2.4 0.8
Wall  01:30 PM 63.2 67.1 -3.9 40.6 38.6 1.9 -0.8
Seymour  01:30 PM 64.7 66.6 -1.9 38.4 34.7 3.7 0.4
Knox City  01:30 PM 65.5 67.7 -2.3 38.6 38.8 -0.2 1.6
Guadalupe Mtns Park  01:30 PM 53.6 66.4 -12.7 29.4 22.4 7 3.7
Caprock Canyons   01:30 PM 58.3 65.2 -7 34.7 32.8 2 4.4
Odell  01:30 PM 63.6 63.5 0.1 37.5 33.7 3.8 1.1
Coyanosa  01:30 PM 62.5 69.6 -7.1 33 41.4 -8.3 3.9
Big Lake  01:30 PM 60.8 63 -2.3 37.3 39.6 -2.3 0.9
Junction  01:30 PM 65.9 64.6 1.3 48.9 36.8 12.1 -3.1
Hobbs  01:30 PM 60.6 63.8 -3.2 30.3 30.3 0.1 4.4
Canadian  01:30 PM 58.9 67.8 -8.9 31.7 34 -2.3 5.2
Palo Duro Canyon State Park Rim  01:30 PM 57.5 70.4 -12.9 34.2 31.9 2.2 5.5
Bootleg  01:30 PM 53.7 65.5 -11.7 32.7 28.6 4.1 5.7
Sterling City  01:30 PM 63.1 68.3 -5.2 36.3 39 -2.7 1.1
Mertzon  01:30 PM 65 64.9 0.1 38.8 37.9 1 -0.3
Persimmon Gap  01:30 PM 70.6 65 5.6 31.3 43.3 -12 0.7
Weinert  01:30 PM 64.4 66.3 -1.9 37.4 34.4 3 1.1
Claude 12 Southwest  01:30 PM 55.7 68.2 -12.5 34.5 32 2.5 5.2
Amarillo 7 South Southeast  01:30 PM 55.3 68.8 -13.5 34 30.6 3.5 5.8
Umbarger  01:30 PM 55 68.4 -13.4 35 32.1 2.9 5.9
Lomax  01:30 PM 62 63.8 -1.7 34.7 37.2 -2.5 2.1
Amarillo 9 North Northeast  01:30 PM 57 70.3 -13.3 33.4 31.3 2.1 6.5
Aiken  01:30 PM 57.1 60.1 -3 35.4 33.8 1.6 4.3
Sweetwater  01:30 PM 60.7 63.9 -3.2 37.2 40 -2.8 1
Dozier  01:30 PM 60.6 65.7 -5.1 35 36.1 -1.1 4
Amarillo 15 North Northwest  01:30 PM 57.4 71.7 -14.3 34.3 32.4 1.9 6.5
Menard  08:35 AM 23.1 63.7 -40.6 10.3 59.9 -49.5 19.7
Tarzan  08:10 PM 47.8 43.2 4.7 31.1 30.6 0.5 -5.8
Goodnight  01:30 PM 57.8 66.8 -9 35 36 -1.1 4.9
Boys Ranch   01:30 PM 57.4 70.9 -13.5 33.6 28.3 5.3 6.8
Fort McKavett  01:30 PM 66 64.4 1.6 42.4 37.3 5.2 -2.3
Fort Chadbourne  01:30 PM 62.7 64.4 -1.7 39.5 36.2 3.2 -0.3
Palo Duro Canyon State Park Floor  01:30 PM 61.1 72.8 -11.8 34.8 32.7 2.1 6
Fort Lancaster  01:30 PM 65.4 62.1 3.4 40.1 40 0 -0.3
Dell City 1N  01:30 PM 60.1 60.9 -0.8 32.9 34.6 -1.8 2.7
Clyde  01:30 PM 62 66.3 -4.4 38 30.6 7.5 -0.6
Snyder SSW  01:30 PM 63.2 63.3 -0.1 37.3 39.9 -2.6 2.3
Panhandle  01:30 PM 54.7 68.6 -13.8 34.2 32.5 1.7 5.8
Vigo Park  01:30 PM 56.2 67.1 -10.9 35.3 31.8 3.5 4.9
Welch  01:30 PM 61.4 63.2 -1.9 35.6 36.2 -0.7 3.4
Throckmorton  01:30 PM 63.1 66.9 -3.8 38.3 32 6.3 -0.1
Sierra Blanca  01:30 PM 60 60.9 -1 29.9 38.6 -8.8 2.2
Fort Lewis CO  01:30 PM 56.4 59.5 -3.1 16.6 19.8 -3.2 1.8
New Home  01:30 PM 60.5 61.3 -0.7 36.1 37 -0.9 3.5
McCamey  01:30 PM 62.2 65.1 -2.9 35.8 42.1 -6.3 2.3
Stamford  01:30 PM 62.4 64 -1.6 38.9 37.1 1.8 0.6
Crowell  01:30 PM 64.8 62 2.8 38.8 37.1 1.7 1.2
Stinnett  01:30 PM 54.8 70.1 -15.4 31.8 30.3 1.6 6.3
Colorado City  01:30 PM 65 65.6 -0.6 36.4 40.1 -3.7 1.7
Happy  01:30 PM 54.8 66.3 -11.5 35.6 33.7 1.9 5.3
Endee  01:30 PM 54.5 68.8 -14.3 34.1 24.7 9.5 6.5
JA Ranch  01:30 PM 60.3 68.3 -8 35.3 34.6 0.7 4.9
Adrian  01:30 PM 52.4 65.9 -13.6 32.9 26.2 6.8 5.8
Lesley  01:30 PM 62.9 68.9 -6 34.7 36.4 -1.7 4.4
Earth  01:30 PM 56.6 68.8 -12.2 35.8 30.2 5.6 5.7
Van Horn  01:30 PM 59.8 66.6 -6.8 30.7 39.2 -8.5 3.2
Rotan  01:30 PM 62.5 65 -2.4 38.1 40.7 -2.6 1.8
Fritch  01:30 PM 55.5 70.3 -14.8 34 30.9 3.1 6.7
Estelline  01:30 PM 62.8 68.4 -5.6 35.4 35.9 -0.5 3.9
Crane  01:30 PM 63.8 65.4 -1.6 35.1 40.9 -5.9 2.6
Hackberry  01:30 PM 64.2 64.6 -0.5 37.9 38.9 -1.1 2.2
Romero 11SSW  01:30 PM 56.6 67.9 -11.3 33 26.5 6.5 6.2
Palo Duro Reservoir 1NW  01:30 PM 56.5 69.4 -12.9 30.7 30.4 0.3 6.4
South Plains 3ENE  01:30 PM 58.3 62.4 -4.1 35.5 35.1 0.5 3.9
Lake McClellan 2NW  01:30 PM 56.5 65.4 -8.8 33.1 33.7 -0.6 4.8
Segovia 7SSW  01:30 PM 65.5 63.2 2.3 49.3 33.1 16.2 -3.2
Castolon 1NW BBNP  01:30 PM 76.1 65.4 10.7 34.6 46.4 -11.8 -0.4
Smyer  01:30 PM 58.7 60.2 -1.5 34.6 34.2 0.4 4
Doole 3WNW  01:30 PM 66.4 68.5 -2 43 30 12.9 -1.9
Stratford  01:30 PM 55.8 73.3 -17.5 28.3 25.6 2.8 6.3
Truscott  01:30 PM 64.7 64.3 0.4 37.9 37.3 0.6 1.3
Kent I10-I20 Split  01:30 PM 58.4 68.4 -9.9 30.6 39 -8.4 4
Olton  01:30 PM 56.2 63.6 -7.5 35 32.1 2.9 5.1

West Texas Mesonet Home   Site Map/Menu  NWS Lubbock Soil Data  Daily Summary Page  24hr Precip  72hr Precip  Google Plot